createdAt,value
2022-08-28T00:00:46.792Z,10.70
2022-08-28T00:03:17.516Z,9.50
2022-08-28T00:05:46.477Z,8.53
2022-08-28T00:08:17.995Z,9.47
2022-08-28T00:10:47.767Z,8.37
2022-08-28T00:13:20.586Z,8.50
2022-08-28T00:15:53.454Z,9.00
2022-08-28T00:18:22.619Z,8.77
2022-08-28T00:20:52.717Z,9.03
2022-08-28T00:23:23.984Z,9.33
2022-08-28T00:25:54.584Z,7.70
2022-08-28T00:28:23.769Z,8.77
2022-08-28T00:30:55.760Z,10.00
2022-08-28T00:33:27.585Z,8.57
2022-08-28T00:35:57.042Z,8.70
2022-08-28T00:38:28.054Z,9.40
2022-08-28T00:40:59.396Z,9.63
2022-08-28T00:43:35.795Z,10.30
2022-08-28T00:46:07.383Z,8.97
2022-08-28T00:48:36.009Z,8.37
2022-08-28T00:51:23.729Z,8.53
2022-08-28T00:53:59.027Z,9.60
2022-08-28T00:56:29.824Z,8.77
2022-08-28T00:58:59.951Z,9.63
2022-08-28T01:01:31.599Z,8.47
2022-08-28T01:04:01.699Z,9.10
2022-08-28T01:06:30.471Z,9.50
2022-08-28T01:09:00.389Z,9.50
2022-08-28T01:11:29.633Z,8.13
2022-08-28T01:14:01.758Z,8.90
2022-08-28T01:16:33.931Z,9.10
2022-08-28T01:19:03.385Z,9.83
2022-08-28T01:21:34.909Z,10.23
2022-08-28T01:24:07.643Z,8.47
2022-08-28T01:26:37.667Z,8.80
2022-08-28T01:29:07.379Z,9.70
2022-08-28T01:31:36.468Z,9.10
2022-08-28T01:34:05.279Z,9.67
2022-08-28T01:36:34.924Z,8.97
2022-08-28T01:39:11.986Z,9.57
2022-08-28T01:41:41.187Z,9.87
2022-08-28T01:44:10.374Z,9.00
2022-08-28T01:46:39.026Z,7.97
2022-08-28T01:49:10.062Z,9.50
2022-08-28T01:51:38.783Z,9.07
2022-08-28T01:54:09.846Z,8.23
2022-08-28T01:56:38.665Z,9.43
2022-08-28T01:59:09.390Z,8.80
2022-08-28T02:01:38.489Z,9.00
2022-08-28T02:04:07.669Z,8.70
2022-08-28T02:06:36.748Z,8.73
2022-08-28T02:09:06.045Z,8.90
2022-08-28T02:11:36.031Z,8.60
2022-08-28T02:14:04.687Z,8.70
2022-08-28T02:16:33.678Z,9.03
2022-08-28T02:19:02.452Z,9.50
2022-08-28T02:21:31.250Z,8.30
2022-08-28T02:23:59.849Z,8.57
2022-08-28T02:26:28.639Z,10.13
2022-08-28T02:28:58.793Z,9.17
2022-08-28T02:31:27.501Z,10.43
2022-08-28T02:33:56.688Z,10.20
2022-08-28T02:36:26.029Z,9.53
2022-08-28T02:38:57.730Z,9.87
2022-08-28T02:41:26.534Z,10.63
2022-08-28T02:43:55.246Z,9.87
2022-08-28T02:46:26.626Z,11.50
2022-08-28T02:48:56.686Z,9.80
2022-08-28T02:51:25.152Z,9.03
2022-08-28T02:53:53.714Z,9.40
2022-08-28T02:56:22.364Z,9.00
2022-08-28T02:58:51.021Z,9.77
2022-08-28T03:01:19.802Z,10.73
2022-08-28T03:03:50.056Z,9.13
2022-08-28T03:06:18.798Z,10.43
2022-08-28T03:08:47.355Z,10.17
2022-08-28T03:11:15.898Z,9.73
2022-08-28T03:13:44.412Z,9.67
2022-08-28T03:16:14.095Z,12.17
2022-08-28T03:18:42.935Z,10.13
2022-08-28T03:21:13.450Z,10.00
2022-08-28T03:23:41.072Z,9.47
2022-08-28T03:26:11.529Z,8.90
2022-08-28T03:28:45.460Z,9.50
2022-08-28T03:31:15.408Z,9.40
2022-08-28T03:33:44.092Z,9.03
2022-08-28T03:36:17.611Z,9.73
2022-08-28T03:38:46.352Z,9.53
2022-08-28T03:41:16.530Z,10.90
2022-08-28T03:43:45.563Z,9.17
2022-08-28T03:46:18.142Z,10.83
2022-08-28T03:48:46.919Z,9.00
2022-08-28T03:51:18.816Z,10.50
2022-08-28T03:53:51.940Z,11.33
2022-08-28T03:56:22.661Z,9.37
2022-08-28T03:58:53.095Z,10.93
2022-08-28T04:01:22.376Z,9.70
2022-08-28T04:03:51.057Z,10.70
2022-08-28T04:06:21.359Z,9.20
2022-08-28T04:08:51.151Z,9.00
2022-08-28T04:11:20.100Z,10.17
2022-08-28T04:13:48.602Z,9.10
2022-08-28T04:16:19.695Z,9.73
2022-08-28T04:18:50.291Z,8.80
2022-08-28T04:21:22.506Z,9.40
2022-08-28T04:23:51.677Z,9.40
2022-08-28T04:26:23.009Z,9.23
2022-08-28T04:28:52.613Z,11.43
2022-08-28T04:31:31.750Z,9.17
2022-08-28T04:34:02.057Z,8.90
2022-08-28T04:36:34.733Z,8.37
2022-08-28T04:39:08.760Z,9.43
2022-08-28T04:41:38.969Z,9.53
2022-08-28T04:44:11.255Z,9.33
2022-08-28T04:46:39.958Z,11.07
2022-08-28T04:49:08.809Z,11.00
2022-08-28T04:51:41.992Z,11.80
2022-08-28T04:54:13.492Z,11.67
2022-08-28T04:56:42.802Z,13.60
2022-08-28T04:59:11.856Z,11.20
2022-08-28T05:01:43.165Z,10.10
2022-08-28T05:04:12.587Z,10.93
2022-08-28T05:06:46.575Z,12.23
2022-08-28T05:09:17.725Z,11.13
2022-08-28T05:11:48.136Z,9.80
2022-08-28T05:14:20.242Z,11.60
2022-08-28T05:16:52.490Z,10.90
2022-08-28T05:19:22.959Z,11.00
2022-08-28T05:21:53.564Z,12.40
2022-08-28T05:24:23.292Z,12.10
2022-08-28T05:26:52.015Z,11.70
2022-08-28T05:29:21.281Z,14.00
2022-08-28T05:31:52.140Z,14.57
2022-08-28T05:34:22.464Z,15.40
2022-08-28T05:36:52.700Z,14.40
2022-08-28T05:39:21.338Z,13.63
2022-08-28T05:41:50.069Z,15.80
2022-08-28T05:44:19.983Z,13.30
2022-08-28T05:46:49.513Z,12.30
2022-08-28T05:49:19.599Z,12.20
2022-08-28T05:51:48.742Z,11.93
2022-08-28T05:54:19.095Z,10.97
2022-08-28T05:56:48.652Z,10.27
2022-08-28T05:59:18.170Z,11.20
2022-08-28T06:01:48.413Z,12.00
2022-08-28T06:04:21.058Z,10.63
2022-08-28T06:06:50.857Z,9.73
2022-08-28T06:09:30.280Z,9.20
2022-08-28T06:12:03.345Z,9.83
2022-08-28T06:14:34.601Z,9.33
2022-08-28T06:17:07.716Z,8.97
2022-08-28T06:19:41.309Z,9.83
2022-08-28T06:22:14.928Z,8.90
2022-08-28T06:24:45.828Z,8.07
2022-08-28T06:27:15.605Z,8.47
2022-08-28T06:29:44.830Z,7.93
2022-08-28T06:32:13.956Z,6.80
2022-08-28T06:34:43.024Z,6.13
2022-08-28T06:37:13.169Z,6.77
2022-08-28T06:39:44.428Z,6.57
2022-08-28T06:42:14.192Z,6.67
2022-08-28T06:44:43.091Z,5.63
2022-08-28T06:47:11.867Z,6.30
2022-08-28T06:49:40.453Z,5.87
2022-08-28T06:52:09.233Z,5.60
2022-08-28T06:54:37.815Z,5.60
2022-08-28T06:57:07.209Z,6.53
2022-08-28T06:59:40.446Z,5.53
2022-08-28T07:02:09.602Z,6.93
2022-08-28T07:04:39.290Z,5.73
2022-08-28T07:07:11.091Z,6.30
2022-08-28T07:10:00.611Z,7.07
2022-08-28T07:12:30.883Z,6.63
2022-08-28T07:15:05.318Z,6.33
2022-08-28T07:17:34.645Z,6.30
2022-08-28T07:20:07.964Z,6.10
2022-08-28T07:22:36.960Z,5.50
2022-08-28T07:25:06.695Z,7.20
2022-08-28T07:27:36.179Z,7.13
2022-08-28T07:30:10.244Z,5.67
2022-08-28T07:32:38.671Z,7.20
2022-08-28T07:35:08.565Z,5.83
2022-08-28T07:37:37.809Z,7.47
2022-08-28T07:40:11.911Z,7.40
2022-08-28T07:42:58.384Z,5.63
2022-08-28T07:45:30.228Z,6.97
2022-08-28T07:47:58.767Z,6.10
2022-08-28T07:50:27.354Z,6.33
2022-08-28T07:52:56.129Z,5.40
2022-08-28T07:55:24.692Z,6.57
2022-08-28T07:57:53.265Z,6.20
2022-08-28T08:00:24.217Z,6.77
2022-08-28T08:02:55.346Z,6.57
2022-08-28T08:05:25.784Z,6.53
2022-08-28T08:07:54.807Z,7.33
2022-08-28T08:10:23.601Z,7.60
2022-08-28T08:12:52.515Z,6.20
2022-08-28T08:15:22.478Z,6.13
2022-08-28T08:17:52.788Z,5.83
2022-08-28T08:20:22.764Z,7.00
2022-08-28T08:22:51.288Z,6.37
2022-08-28T08:25:19.758Z,6.37
2022-08-28T08:27:48.240Z,5.90
2022-08-28T08:30:16.706Z,5.13
2022-08-28T08:32:45.266Z,6.57
2022-08-28T08:35:13.990Z,5.73
2022-08-28T08:37:45.236Z,5.50
2022-08-28T08:40:19.249Z,7.40
2022-08-28T08:42:51.261Z,8.17
2022-08-28T08:45:26.595Z,7.43
2022-08-28T08:47:59.106Z,7.33
2022-08-28T08:50:30.327Z,6.47
2022-08-28T08:53:22.762Z,6.00
2022-08-28T08:55:53.531Z,6.07
2022-08-28T08:58:28.794Z,5.20
2022-08-28T09:11:41.880Z,4.93
2022-08-28T09:14:15.329Z,4.53
2022-08-28T09:16:48.046Z,4.97
2022-08-28T09:19:22.860Z,5.30
2022-08-28T09:21:53.529Z,6.37
2022-08-28T09:24:26.877Z,5.10
2022-08-28T09:26:59.707Z,4.97
2022-08-28T09:29:33.690Z,4.97
2022-08-28T09:32:19.405Z,6.37
2022-08-28T09:35:03.174Z,4.70
2022-08-28T09:37:33.533Z,6.47
2022-08-28T09:40:25.912Z,5.90
2022-08-28T09:43:25.850Z,5.50
2022-08-28T09:45:58.403Z,4.83
2022-08-28T09:48:33.760Z,6.70
2022-08-28T09:51:05.051Z,6.53
2022-08-28T09:53:35.956Z,6.30
2022-08-28T09:56:13.186Z,5.97
2022-08-28T09:58:47.207Z,5.83
2022-08-28T10:01:39.441Z,6.37
2022-08-28T10:04:35.434Z,6.03
2022-08-28T10:07:07.989Z,6.53
2022-08-28T10:09:46.781Z,6.60
2022-08-28T10:12:28.785Z,6.40
2022-08-28T10:15:02.400Z,5.80
2022-08-28T10:17:36.262Z,7.23
2022-08-28T10:20:11.847Z,8.10
2022-08-28T10:22:45.850Z,7.47
2022-08-28T10:25:23.777Z,6.40
2022-08-28T10:28:03.512Z,6.23
2022-08-28T10:30:36.687Z,5.30
2022-08-28T10:33:19.710Z,5.30
2022-08-28T10:35:52.964Z,5.57
2022-08-28T10:38:25.931Z,5.97
2022-08-28T10:40:59.272Z,5.10
2022-08-28T10:43:32.266Z,4.70
2022-08-28T10:46:06.320Z,4.40
2022-08-28T10:48:39.280Z,4.93
2022-08-28T10:51:10.258Z,5.33
2022-08-28T10:53:42.349Z,7.47
2022-08-28T10:56:16.987Z,10.23
2022-08-28T10:58:47.474Z,8.40
2022-08-28T11:01:25.578Z,6.20
2022-08-28T11:03:56.783Z,5.50
2022-08-28T11:06:31.867Z,4.80
2022-08-28T11:09:25.910Z,4.33
2022-08-28T11:12:01.743Z,4.27
2022-08-28T11:14:33.925Z,3.70
2022-08-28T11:17:08.365Z,5.17
2022-08-28T11:19:58.229Z,4.53
2022-08-28T11:22:33.508Z,4.37
2022-08-28T11:25:09.807Z,4.13
2022-08-28T11:27:40.291Z,5.40
2022-08-28T11:30:34.694Z,5.30
2022-08-28T11:33:07.979Z,4.10
2022-08-28T11:36:00.606Z,3.73
2022-08-28T11:39:13.708Z,3.83
2022-08-28T11:42:32.164Z,4.30
2022-08-28T11:45:01.494Z,4.10
2022-08-28T11:47:56.927Z,4.40
2022-08-28T11:50:35.778Z,3.37
2022-08-28T11:53:34.913Z,3.50
2022-08-28T11:56:31.173Z,3.60
2022-08-28T11:59:10.931Z,2.40
2022-08-28T12:01:40.610Z,3.77
2022-08-28T12:04:14.274Z,3.70
2022-08-28T12:06:57.029Z,2.50
2022-08-28T12:09:49.961Z,3.30
2022-08-28T12:12:57.894Z,3.50
2022-08-28T12:15:43.002Z,3.03
2022-08-28T12:18:39.134Z,3.63
2022-08-28T12:21:09.043Z,3.40
2022-08-28T12:23:44.859Z,3.40
2022-08-28T12:26:22.496Z,3.40
2022-08-28T12:28:53.577Z,3.57
2022-08-28T12:32:16.521Z,3.37
2022-08-28T12:35:06.013Z,2.80
2022-08-28T12:37:51.053Z,3.67
2022-08-28T12:40:24.200Z,4.33
2022-08-28T12:43:07.343Z,4.60
2022-08-28T12:45:49.376Z,4.07
2022-08-28T12:48:24.099Z,4.40
2022-08-28T12:51:05.541Z,4.07
2022-08-28T12:53:55.270Z,4.70
2022-08-28T12:56:46.833Z,5.43
2022-08-28T12:59:27.224Z,5.13
2022-08-28T13:01:59.127Z,5.67
2022-08-28T13:04:35.598Z,5.40
2022-08-28T13:07:08.593Z,5.37
2022-08-28T13:09:37.345Z,5.27
2022-08-28T13:12:18.426Z,5.40
2022-08-28T13:14:48.003Z,5.30
2022-08-28T13:17:17.746Z,5.00
2022-08-28T13:19:46.455Z,5.10
2022-08-28T13:22:34.108Z,5.90
2022-08-28T13:25:03.762Z,4.83
2022-08-28T13:27:34.599Z,5.00
2022-08-28T13:30:08.776Z,5.47
2022-08-28T13:32:40.591Z,5.60
2022-08-28T13:35:32.582Z,6.07
2022-08-28T13:38:03.848Z,5.77
2022-08-28T13:43:26.419Z,4.80
2022-08-28T13:45:54.941Z,6.10
2022-08-28T13:48:25.631Z,6.47
2022-08-28T13:50:57.790Z,5.73
2022-08-28T13:53:26.346Z,5.40
2022-08-28T13:55:54.954Z,6.53
2022-08-28T13:58:26.532Z,7.17
2022-08-28T14:00:55.278Z,6.53
2022-08-28T14:03:39.286Z,4.70
2022-08-28T14:06:12.003Z,5.60
2022-08-28T14:08:41.413Z,5.13
2022-08-28T14:11:12.601Z,5.10
2022-08-28T14:13:47.115Z,5.50
2022-08-28T14:16:24.981Z,5.97
2022-08-28T14:18:54.011Z,6.77
2022-08-28T14:21:24.804Z,5.80
2022-08-28T14:23:53.825Z,5.00
2022-08-28T14:26:22.571Z,4.87
2022-08-28T14:28:52.432Z,4.53
2022-08-28T14:31:21.172Z,4.17
2022-08-28T14:33:54.985Z,4.90
2022-08-28T14:36:26.015Z,4.40
2022-08-28T14:38:55.979Z,4.70
2022-08-28T14:41:25.159Z,4.20
2022-08-28T14:43:56.024Z,4.97
2022-08-28T14:46:28.149Z,4.93
2022-08-28T14:48:57.743Z,5.17
2022-08-28T14:51:26.532Z,4.87
2022-08-28T14:53:58.414Z,4.80
2022-08-28T14:56:31.642Z,4.13
2022-08-28T14:59:02.688Z,4.50
2022-08-28T15:01:40.604Z,4.70
2022-08-28T15:04:11.757Z,3.80
2022-08-28T15:06:46.331Z,4.50
2022-08-28T15:09:18.447Z,3.23
2022-08-28T15:11:48.426Z,3.70
2022-08-28T15:14:19.708Z,4.37
2022-08-28T15:16:50.635Z,3.80
2022-08-28T15:19:20.726Z,4.00
2022-08-28T15:21:51.717Z,4.10
2022-08-28T15:24:24.992Z,6.70
2022-08-28T15:26:53.966Z,6.40
2022-08-28T15:29:23.979Z,5.70
2022-08-28T15:31:53.175Z,3.90
2022-08-28T15:34:23.069Z,3.97
2022-08-28T15:36:54.601Z,3.93
2022-08-28T15:39:42.149Z,3.53
2022-08-28T15:42:11.611Z,3.93
2022-08-28T15:44:41.495Z,3.83
2022-08-28T15:47:10.037Z,4.03
2022-08-28T15:49:46.824Z,4.87
2022-08-28T15:52:21.027Z,3.83
2022-08-28T15:54:51.292Z,4.03
2022-08-28T16:00:12.001Z,3.73
2022-08-28T16:02:41.492Z,3.80
2022-08-28T16:05:11.645Z,3.30
2022-08-28T16:07:40.965Z,2.97
2022-08-28T16:10:13.513Z,3.37
2022-08-28T16:12:42.055Z,3.50
2022-08-28T16:15:14.094Z,2.93
2022-08-28T16:17:48.893Z,2.97
2022-08-28T16:20:17.226Z,2.67
2022-08-28T16:22:45.845Z,3.03
2022-08-28T16:25:14.700Z,3.00
2022-08-28T16:27:43.008Z,3.23
2022-08-28T16:30:15.634Z,4.13
2022-08-28T16:32:46.696Z,4.03
2022-08-28T16:35:16.096Z,4.90
2022-08-28T16:37:45.555Z,4.77
2022-08-28T16:40:14.909Z,4.20
2022-08-28T16:42:51.360Z,4.10
2022-08-28T16:45:22.626Z,3.73
2022-08-28T16:47:51.185Z,3.80
2022-08-28T16:50:20.152Z,4.70
2022-08-28T16:52:48.746Z,3.33
2022-08-28T16:55:17.408Z,3.87
2022-08-28T16:57:46.260Z,4.87
2022-08-28T17:00:15.259Z,4.50
2022-08-28T17:02:45.708Z,3.60
2022-08-28T17:05:16.982Z,3.80
2022-08-28T17:07:47.891Z,5.37
2022-08-28T17:10:18.960Z,3.60
2022-08-28T17:12:47.599Z,3.73
2022-08-28T17:15:16.450Z,4.60
2022-08-28T17:17:47.055Z,4.33
2022-08-28T17:20:30.381Z,5.33
2022-08-28T17:22:58.903Z,5.23
2022-08-28T17:25:28.369Z,6.23
2022-08-28T17:27:58.733Z,5.63
2022-08-28T17:30:27.663Z,5.23
2022-08-28T17:32:57.492Z,5.10
2022-08-28T17:35:25.964Z,4.40
2022-08-28T17:37:55.754Z,5.20
2022-08-28T17:40:24.537Z,5.50
2022-08-28T17:42:53.793Z,4.53
2022-08-28T17:45:22.834Z,6.83
2022-08-28T17:47:52.986Z,6.23
2022-08-28T17:50:23.629Z,6.20
2022-08-28T17:52:52.089Z,6.17
2022-08-28T17:55:21.234Z,7.67
2022-08-28T17:57:50.329Z,6.47
2022-08-28T18:00:19.414Z,6.77
2022-08-28T18:02:52.621Z,6.70
2022-08-28T18:05:23.975Z,6.57
2022-08-28T18:07:52.500Z,7.00
2022-08-28T18:10:21.728Z,6.20
2022-08-28T18:12:51.032Z,7.67
2022-08-28T18:15:19.650Z,7.20
2022-08-28T18:17:50.475Z,6.30
2022-08-28T18:20:19.852Z,6.17
2022-08-28T18:22:50.266Z,6.00
2022-08-28T18:25:34.240Z,4.97
2022-08-28T18:28:03.421Z,5.60
2022-08-28T18:30:32.213Z,6.50
2022-08-28T18:33:00.899Z,6.37
2022-08-28T18:35:32.078Z,5.63
2022-08-28T18:38:02.637Z,6.30
2022-08-28T18:40:31.575Z,5.23
2022-08-28T18:43:00.589Z,5.30
2022-08-28T18:45:35.393Z,6.70
2022-08-28T18:48:04.523Z,5.90
2022-08-28T18:50:36.235Z,6.33
2022-08-28T18:53:06.739Z,6.33
2022-08-28T18:55:35.315Z,5.97
2022-08-28T18:58:04.024Z,4.97
2022-08-28T19:00:34.552Z,5.80
2022-08-28T19:03:03.297Z,5.90
2022-08-28T19:05:33.606Z,5.80
2022-08-28T19:08:04.672Z,5.37
2022-08-28T19:10:38.742Z,7.60
2022-08-28T19:13:07.564Z,6.43
2022-08-28T19:15:37.431Z,6.70
2022-08-28T19:18:06.929Z,5.50
2022-08-28T19:20:36.207Z,7.20
2022-08-28T19:23:04.828Z,6.00
2022-08-28T19:25:33.595Z,6.53
2022-08-28T19:28:04.048Z,5.87
2022-08-28T19:30:34.375Z,5.30
2022-08-28T19:33:03.461Z,5.87
2022-08-28T19:35:35.113Z,6.27
2022-08-28T19:38:03.694Z,5.80
2022-08-28T19:40:33.786Z,5.90
2022-08-28T19:43:05.537Z,6.23
2022-08-28T19:45:37.092Z,5.10
2022-08-28T19:48:05.869Z,5.80
2022-08-28T19:50:34.538Z,5.80
2022-08-28T19:53:03.156Z,6.93
2022-08-28T19:55:33.003Z,7.10
2022-08-28T19:58:05.397Z,6.50
2022-08-28T20:00:37.005Z,6.67
2022-08-28T20:03:17.221Z,6.60
2022-08-28T20:05:48.643Z,6.87
2022-08-28T20:08:17.505Z,7.10
2022-08-28T20:10:48.808Z,7.50
2022-08-28T20:13:18.739Z,7.67
2022-08-28T20:15:50.755Z,8.20
2022-08-28T20:18:19.429Z,7.87
2022-08-28T20:20:49.683Z,7.77
2022-08-28T20:23:18.720Z,7.13
2022-08-28T20:25:51.597Z,7.20
2022-08-28T20:28:20.840Z,8.53
2022-08-28T20:30:50.874Z,7.33
2022-08-28T20:33:19.735Z,7.67
2022-08-28T20:35:48.444Z,8.20
2022-08-28T20:38:17.016Z,7.47
2022-08-28T20:40:45.672Z,7.90
2022-08-28T20:43:14.318Z,7.53
2022-08-28T20:45:47.882Z,7.30
2022-08-28T20:48:18.153Z,7.30
2022-08-28T20:50:46.638Z,8.43
2022-08-28T20:53:15.137Z,7.70
2022-08-28T20:56:05.725Z,7.37
2022-08-28T20:58:34.286Z,7.80
2022-08-28T21:01:03.253Z,6.10
2022-08-28T21:03:33.465Z,6.73
2022-08-28T21:06:02.009Z,6.80
2022-08-28T21:08:30.653Z,7.30
2022-08-28T21:10:59.377Z,6.63
2022-08-28T21:13:28.425Z,7.47
2022-08-28T21:15:57.096Z,8.00
2022-08-28T21:18:25.817Z,8.30
2022-08-28T21:20:58.349Z,9.03
2022-08-28T21:23:26.895Z,9.33
2022-08-28T21:25:55.398Z,8.93
2022-08-28T21:28:24.006Z,9.03
2022-08-28T21:30:54.093Z,9.07
2022-08-28T21:33:23.007Z,9.17
2022-08-28T21:35:51.587Z,9.60
2022-08-28T21:38:21.401Z,9.97
2022-08-28T21:40:49.882Z,9.17
2022-08-28T21:43:18.592Z,9.60
2022-08-28T21:45:47.132Z,8.77
2022-08-28T21:48:15.676Z,9.40
2022-08-28T21:50:44.929Z,10.20
2022-08-28T21:53:13.616Z,9.27
2022-08-28T21:55:50.413Z,9.67
2022-08-28T21:58:19.329Z,8.67
2022-08-28T22:00:48.849Z,9.30
2022-08-28T22:03:18.443Z,14.07
2022-08-28T22:05:48.757Z,10.93
2022-08-28T22:08:19.372Z,10.93
2022-08-28T22:10:49.377Z,9.63
2022-08-28T22:13:18.201Z,8.97
2022-08-28T22:15:48.140Z,7.60
2022-08-28T22:18:17.372Z,8.80
2022-08-28T22:21:04.370Z,8.77
2022-08-28T22:23:35.688Z,8.60
2022-08-28T22:26:12.552Z,8.47
2022-08-28T22:28:40.930Z,9.67
2022-08-28T22:31:09.858Z,9.73
2022-08-28T22:33:38.574Z,10.17
2022-08-28T22:36:10.002Z,11.30
2022-08-28T22:38:39.270Z,10.70
2022-08-28T22:41:09.860Z,10.77
2022-08-28T22:43:39.794Z,10.53
2022-08-28T22:46:09.441Z,10.53
2022-08-28T22:48:38.193Z,9.00
2022-08-28T22:51:09.274Z,9.80
2022-08-28T22:53:38.030Z,10.90
2022-08-28T22:56:33.429Z,9.67
2022-08-28T22:59:02.443Z,10.40
2022-08-28T23:01:31.855Z,11.10
2022-08-28T23:07:51.904Z,10.70
2022-08-28T23:10:58.897Z,9.63
2022-08-28T23:13:30.818Z,11.27
2022-08-28T23:15:59.905Z,13.10
2022-08-28T23:18:28.957Z,12.23
2022-08-28T23:20:57.596Z,13.07
2022-08-28T23:23:30.703Z,12.67
2022-08-28T23:25:59.144Z,12.00
2022-08-28T23:28:29.183Z,10.83
2022-08-28T23:30:57.674Z,11.60
2022-08-28T23:33:26.166Z,12.23
2022-08-28T23:35:54.742Z,10.73
2022-08-28T23:38:23.431Z,10.50
2022-08-28T23:40:52.076Z,11.03
2022-08-28T23:43:20.753Z,9.50
2022-08-28T23:45:52.182Z,10.10
2022-08-28T23:48:20.804Z,10.70
2022-08-28T23:50:49.153Z,9.93
2022-08-28T23:53:18.062Z,9.80
2022-08-28T23:55:46.980Z,9.50
2022-08-28T23:58:17.543Z,10.47
